Terminal Aerodrome Forecast
Issued by NWS Medford, OR

Home | Current Version | Previous Version | Text Only | Print | Product List | Glossary On
Versions: 1 2 3 4 5 6 7 8 9 10 11 12 13 14 15 16 17 18
418
FTUS46 KMFR 140548
TAFMFR
TAF
KMFR 140548Z 1406/1506 00000KT P6SM -RA SCT025 OVC035
     FM141200 00000KT 4SM -RA BR SCT015 OVC025
     FM141800 VRB03KT 6SM -RA BR SCT007 BKN015 OVC025=

USA.gov is the U.S. government's official web portal to all federal, state and local government web resources and services.